sensor_id;sensor_type;location;lat;lon;timestamp;pressure;altitude;pressure_sealevel;temperature;humidity
46534;BME280;32260;52.008;4.752;2023-04-05T00:01:50;102638.59;;;6.09;60.76
46534;BME280;32260;52.008;4.752;2023-04-05T00:04:18;102635.03;;;6.07;60.18
46534;BME280;32260;52.008;4.752;2023-04-05T00:06:46;102638.47;;;6.05;60.46
46534;BME280;32260;52.008;4.752;2023-04-05T00:09:18;102632.25;;;6.03;61.15
46534;BME280;32260;52.008;4.752;2023-04-05T00:11:45;102633.06;;;6.00;61.25
46534;BME280;32260;52.008;4.752;2023-04-05T00:14:12;102632.97;;;5.97;61.80
46534;BME280;32260;52.008;4.752;2023-04-05T00:16:38;102640.72;;;5.92;61.91
46534;BME280;32260;52.008;4.752;2023-04-05T00:19:05;102633.53;;;5.87;61.43
46534;BME280;32260;52.008;4.752;2023-04-05T00:21:31;102629.91;;;5.83;61.45
46534;BME280;32260;52.008;4.752;2023-04-05T00:23:58;102624.59;;;5.80;61.10
46534;BME280;32260;52.008;4.752;2023-04-05T00:26:25;102624.44;;;5.75;61.95
46534;BME280;32260;52.008;4.752;2023-04-05T00:28:52;102631.44;;;5.73;61.51
46534;BME280;32260;52.008;4.752;2023-04-05T00:31:18;102626.91;;;5.69;62.29
46534;BME280;32260;52.008;4.752;2023-04-05T00:33:45;102620.63;;;5.64;62.32
46534;BME280;32260;52.008;4.752;2023-04-05T00:38:47;102622.31;;;5.62;62.01
46534;BME280;32260;52.008;4.752;2023-04-05T00:41:15;102621.41;;;5.60;62.13
46534;BME280;32260;52.008;4.752;2023-04-05T00:43:41;102616.13;;;5.60;61.71
46534;BME280;32260;52.008;4.752;2023-04-05T00:46:08;102608.22;;;5.58;62.35
46534;BME280;32260;52.008;4.752;2023-04-05T00:48:35;102617.81;;;5.58;61.38
46534;BME280;32260;52.008;4.752;2023-04-05T00:51:01;102610.69;;;5.54;62.32
46534;BME280;32260;52.008;4.752;2023-04-05T00:53:28;102604.44;;;5.50;61.77
46534;BME280;32260;52.008;4.752;2023-04-05T00:55:54;102606.09;;;5.46;61.58
46534;BME280;32260;52.008;4.752;2023-04-05T00:58:21;102602.34;;;5.38;62.19
46534;BME280;32260;52.008;4.752;2023-04-05T01:01:11;102602.25;;;5.06;63.00
46534;BME280;32260;52.008;4.752;2023-04-05T01:03:42;102605.44;;;4.96;63.55
46534;BME280;32260;52.008;4.752;2023-04-05T01:06:20;102600.09;;;4.93;63.94
46534;BME280;32260;52.008;4.752;2023-04-05T01:09:55;102602.56;;;4.88;64.35
46534;BME280;32260;52.008;4.752;2023-04-05T01:11:42;102604.94;;;4.80;63.43
46534;BME280;32260;52.008;4.752;2023-04-05T01:14:10;102596.03;;;4.75;64.51
46534;BME280;32260;52.008;4.752;2023-04-05T01:16:36;102592.38;;;4.70;64.05
46534;BME280;32260;52.008;4.752;2023-04-05T01:19:02;102591.34;;;4.65;64.88
46534;BME280;32260;52.008;4.752;2023-04-05T01:24:41;102580.63;;;4.59;63.67
46534;BME280;32260;52.008;4.752;2023-04-05T01:27:18;102583.97;;;4.54;64.21
46534;BME280;32260;52.008;4.752;2023-04-05T01:29:52;102576.00;;;4.51;64.50
46534;BME280;32260;52.008;4.752;2023-04-05T01:36:14;102574.06;;;4.46;63.90
46534;BME280;32260;52.008;4.752;2023-04-05T01:38:01;102565.97;;;4.40;64.29
46534;BME280;32260;52.008;4.752;2023-04-05T01:40:28;102571.16;;;4.36;64.57
46534;BME280;32260;52.008;4.752;2023-04-05T01:42:56;102575.44;;;4.34;65.09
46534;BME280;32260;52.008;4.752;2023-04-05T01:45:22;102575.41;;;4.33;65.48
46534;BME280;32260;52.008;4.752;2023-04-05T01:47:48;102570.03;;;4.30;65.55
46534;BME280;32260;52.008;4.752;2023-04-05T01:50:14;102568.16;;;4.26;66.32
46534;BME280;32260;52.008;4.752;2023-04-05T01:52:40;102570.59;;;4.21;65.22
46534;BME280;32260;52.008;4.752;2023-04-05T01:55:07;102569.06;;;4.53;64.40
46534;BME280;32260;52.008;4.752;2023-04-05T01:57:33;102564.47;;;4.46;64.22
46534;BME280;32260;52.008;4.752;2023-04-05T01:59:59;102559.94;;;4.42;64.82
46534;BME280;32260;52.008;4.752;2023-04-05T02:02:26;102556.44;;;4.16;65.05
46534;BME280;32260;52.008;4.752;2023-04-05T02:04:52;102556.19;;;4.08;65.31
46534;BME280;32260;52.008;4.752;2023-04-05T02:07:18;102556.09;;;4.05;64.65
46534;BME280;32260;52.008;4.752;2023-04-05T02:09:44;102556.84;;;4.02;64.68
46534;BME280;32260;52.008;4.752;2023-04-05T02:12:11;102555.03;;;4.00;64.77
46534;BME280;32260;52.008;4.752;2023-04-05T02:14:37;102553.25;;;3.99;64.26
46534;BME280;32260;52.008;4.752;2023-04-05T02:17:03;102545.28;;;3.96;65.02
46534;BME280;32260;52.008;4.752;2023-04-05T02:19:29;102546.91;;;3.92;65.52
46534;BME280;32260;52.008;4.752;2023-04-05T02:22:02;102543.28;;;3.88;65.24
46534;BME280;32260;52.008;4.752;2023-04-05T02:24:28;102538.13;;;4.17;64.13
46534;BME280;32260;52.008;4.752;2023-04-05T02:26:54;102539.19;;;4.23;63.52
46534;BME280;32260;52.008;4.752;2023-04-05T02:29:21;102533.22;;;4.27;62.92
46534;BME280;32260;52.008;4.752;2023-04-05T02:31:47;102533.22;;;4.27;62.66
46534;BME280;32260;52.008;4.752;2023-04-05T02:34:13;102529.63;;;4.25;63.58
46534;BME280;32260;52.008;4.752;2023-04-05T02:36:39;102522.59;;;4.24;63.02
46534;BME280;32260;52.008;4.752;2023-04-05T02:39:07;102522.38;;;4.17;63.72
46534;BME280;32260;52.008;4.752;2023-04-05T02:41:34;102522.31;;;4.14;62.86
46534;BME280;32260;52.008;4.752;2023-04-05T02:44:00;102516.97;;;4.11;62.93
46534;BME280;32260;52.008;4.752;2023-04-05T02:46:26;102520.44;;;4.10;62.66
46534;BME280;32260;52.008;4.752;2023-04-05T02:48:52;102516.84;;;4.08;62.39
46534;BME280;32260;52.008;4.752;2023-04-05T02:51:19;102522.00;;;4.05;62.77
46534;BME280;32260;52.008;4.752;2023-04-05T02:53:45;102519.38;;;4.05;62.77
46534;BME280;32260;52.008;4.752;2023-04-05T02:56:11;102515.75;;;4.01;62.59
46534;BME280;32260;52.008;4.752;2023-04-05T02:58:39;102507.72;;;3.97;63.24
46534;BME280;32260;52.008;4.752;2023-04-05T03:01:06;102518.03;;;3.92;62.94
46534;BME280;32260;52.008;4.752;2023-04-05T03:03:32;102503.94;;;3.88;63.60
46534;BME280;32260;52.008;4.752;2023-04-05T03:06:02;102512.63;;;3.87;63.72
46534;BME280;32260;52.008;4.752;2023-04-05T03:08:35;102503.50;;;3.76;63.92
46534;BME280;32260;52.008;4.752;2023-04-05T03:11:04;102503.50;;;3.76;63.21
46534;BME280;32260;52.008;4.752;2023-04-05T03:13:31;102508.03;;;3.80;62.97
46534;BME280;32260;52.008;4.752;2023-04-05T03:15:57;102499.25;;;3.80;62.97
46534;BME280;32260;52.008;4.752;2023-04-05T03:18:23;102510.53;;;3.77;63.35
46534;BME280;32260;52.008;4.752;2023-04-05T03:20:52;102499.06;;;3.73;62.83
46534;BME280;32260;52.008;4.752;2023-04-05T03:23:26;102492.94;;;3.73;62.62
46534;BME280;32260;52.008;4.752;2023-04-05T03:25:57;102502.47;;;3.71;63.38
46534;BME280;32260;52.008;4.752;2023-04-05T03:28:23;102491.06;;;3.69;63.50
46534;BME280;32260;52.008;4.752;2023-04-05T03:30:50;102501.41;;;3.66;63.21
46534;BME280;32260;52.008;4.752;2023-04-05T03:33:17;102501.31;;;3.63;63.17
46534;BME280;32260;52.008;4.752;2023-04-05T03:35:43;102490.63;;;3.56;63.65
46534;BME280;32260;52.008;4.752;2023-04-05T03:38:10;102495.78;;;3.55;63.46
46534;BME280;32260;52.008;4.752;2023-04-05T03:40:37;102500.13;;;3.54;63.73
46534;BME280;32260;52.008;4.752;2023-04-05T03:43:03;102498.41;;;3.55;64.51
46534;BME280;32260;52.008;4.752;2023-04-05T03:45:29;102495.72;;;3.53;66.30
46534;BME280;32260;52.008;4.752;2023-04-05T03:47:57;102500.00;;;3.51;65.33
46534;BME280;32260;52.008;4.752;2023-04-05T03:50:23;102505.38;;;3.54;65.00
46534;BME280;32260;52.008;4.752;2023-04-05T03:52:51;102505.34;;;3.53;64.71
46534;BME280;32260;52.008;4.752;2023-04-05T03:55:18;102505.38;;;3.54;64.20
46534;BME280;32260;52.008;4.752;2023-04-05T03:57:44;102500.97;;;3.53;65.13
46534;BME280;32260;52.008;4.752;2023-04-05T04:00:11;102500.97;;;3.53;65.01
46534;BME280;32260;52.008;4.752;2023-04-05T04:05:19;102498.19;;;3.49;64.87
46534;BME280;32260;52.008;4.752;2023-04-05T04:07:46;102495.47;;;3.46;64.45
46534;BME280;32260;52.008;4.752;2023-04-05T04:10:14;102494.47;;;3.42;64.24
46534;BME280;32260;52.008;4.752;2023-04-05T04:12:43;102499.59;;;3.39;64.29
46534;BME280;32260;52.008;4.752;2023-04-05T04:15:09;102493.41;;;3.37;63.85
46534;BME280;32260;52.008;4.752;2023-04-05T04:17:36;102502.09;;;3.36;64.28
46534;BME280;32260;52.008;4.752;2023-04-05T04:20:04;102502.09;;;3.36;63.44
46534;BME280;32260;52.008;4.752;2023-04-05T04:22:36;102498.53;;;3.34;63.77
46534;BME280;32260;52.008;4.752;2023-04-05T04:25:09;102501.13;;;3.34;63.77
46534;BME280;32260;52.008;4.752;2023-04-05T04:27:38;102497.59;;;3.32;63.79
46534;BME280;32260;52.008;4.752;2023-04-05T04:30:08;102494.84;;;3.29;63.52
46534;BME280;32260;52.008;4.752;2023-04-05T04:32:36;102494.84;;;3.29;63.19
46534;BME280;32260;52.008;4.752;2023-04-05T04:35:22;102492.06;;;3.24;63.58
46534;BME280;32260;52.008;4.752;2023-04-05T04:40:32;102487.34;;;3.15;64.29
46534;BME280;32260;52.008;4.752;2023-04-05T04:43:09;102496.31;;;3.20;63.35
46534;BME280;32260;52.008;4.752;2023-04-05T04:45:39;102492.72;;;3.18;63.39
46534;BME280;32260;52.008;4.752;2023-04-05T04:48:06;102496.19;;;3.17;63.31
46534;BME280;32260;52.008;4.752;2023-04-05T04:50:33;102487.34;;;3.15;63.62
46534;BME280;32260;52.008;4.752;2023-04-05T04:53:00;102485.53;;;3.13;62.88
46534;BME280;32260;52.008;4.752;2023-04-05T04:55:27;102483.69;;;3.10;63.23
46534;BME280;32260;52.008;4.752;2023-04-05T04:57:55;102482.81;;;3.10;63.33
46534;BME280;32260;52.008;4.752;2023-04-05T05:00:22;102486.28;;;3.10;63.29
46534;BME280;32260;52.008;4.752;2023-04-05T05:02:49;102486.44;;;3.13;63.79
46534;BME280;32260;52.008;4.752;2023-04-05T05:05:15;102486.44;;;3.13;63.27
46534;BME280;32260;52.008;4.752;2023-04-05T05:07:41;102490.75;;;3.13;63.40
46534;BME280;32260;52.008;4.752;2023-04-05T05:10:09;102493.38;;;3.13;63.43
46534;BME280;32260;52.008;4.752;2023-04-05T05:12:37;102488.91;;;3.10;63.83
46534;BME280;32260;52.008;4.752;2023-04-05T05:15:03;102494.16;;;3.10;64.47
46534;BME280;32260;52.008;4.752;2023-04-05T05:17:29;102494.09;;;3.08;64.55
46534;BME280;32260;52.008;4.752;2023-04-05T05:19:57;102492.41;;;3.09;64.49
46534;BME280;32260;52.008;4.752;2023-04-05T05:22:25;102494.16;;;3.10;64.92
46534;BME280;32260;52.008;4.752;2023-04-05T05:24:52;102494.16;;;3.10;64.47
46534;BME280;32260;52.008;4.752;2023-04-05T05:27:18;102490.72;;;3.11;64.40
46534;BME280;32260;52.008;4.752;2023-04-05T05:29:47;102497.72;;;3.12;64.02
46534;BME280;32260;52.008;4.752;2023-04-05T05:32:13;102496.06;;;3.14;64.78
46534;BME280;32260;52.008;4.752;2023-04-05T05:34:41;102502.19;;;3.15;64.10
46534;BME280;32260;52.008;4.752;2023-04-05T05:37:10;102500.53;;;3.17;63.81
46534;BME280;32260;52.008;4.752;2023-04-05T05:39:36;102497.13;;;3.19;64.02
46534;BME280;32260;52.008;4.752;2023-04-05T05:42:03;102493.75;;;3.22;63.97
46534;BME280;32260;52.008;4.752;2023-04-05T05:44:29;102498.19;;;3.24;64.63
46534;BME280;32260;52.008;4.752;2023-04-05T05:46:56;102498.25;;;3.26;64.49
46534;BME280;32260;52.008;4.752;2023-04-05T05:49:22;102485.28;;;3.29;64.77
46534;BME280;32260;52.008;4.752;2023-04-05T05:51:48;102496.75;;;3.33;64.54
46534;BME280;32260;52.008;4.752;2023-04-05T05:54:15;102498.53;;;3.34;64.63
46534;BME280;32260;52.008;4.752;2023-04-05T05:56:41;102496.91;;;3.37;64.40
46534;BME280;32260;52.008;4.752;2023-04-05T05:59:07;102493.59;;;3.42;65.02
46534;BME280;32260;52.008;4.752;2023-04-05T06:01:33;102493.72;;;3.46;64.94
46534;BME280;32260;52.008;4.752;2023-04-05T06:04:03;102499.13;;;3.51;65.32
46534;BME280;32260;52.008;4.752;2023-04-05T06:06:30;102493.16;;;3.55;65.11
46534;BME280;32260;52.008;4.752;2023-04-05T06:08:58;102495.06;;;3.59;64.40
46534;BME280;32260;52.008;4.752;2023-04-05T06:11:24;102500.41;;;3.62;64.00
46534;BME280;32260;52.008;4.752;2023-04-05T06:13:51;102494.38;;;3.65;63.68
46534;BME280;32260;52.008;4.752;2023-04-05T06:16:19;102493.66;;;3.69;64.69
46534;BME280;32260;52.008;4.752;2023-04-05T06:18:46;102497.34;;;3.74;64.50
46534;BME280;32260;52.008;4.752;2023-04-05T06:21:12;102502.81;;;3.80;64.32
46534;BME280;32260;52.008;4.752;2023-04-05T06:23:42;102503.00;;;3.86;63.68
46534;BME280;32260;52.008;4.752;2023-04-05T06:26:15;102502.31;;;3.92;63.43
46534;BME280;32260;52.008;4.752;2023-04-05T06:28:43;102489.41;;;3.98;63.50
46534;BME280;32260;52.008;4.752;2023-04-05T06:31:12;102500.16;;;4.06;63.67
46534;BME280;32260;52.008;4.752;2023-04-05T06:33:40;102503.09;;;4.15;63.44
46534;BME280;32260;52.008;4.752;2023-04-05T06:36:07;102504.13;;;4.20;63.53
46534;BME280;32260;52.008;4.752;2023-04-05T06:38:33;102499.09;;;4.27;63.27
46534;BME280;32260;52.008;4.752;2023-04-05T06:40:59;102504.59;;;4.34;62.95
46534;BME280;32260;52.008;4.752;2023-04-05T06:43:25;102498.66;;;4.40;62.76
46534;BME280;32260;52.008;4.752;2023-04-05T06:45:53;102499.66;;;4.44;63.30
46534;BME280;32260;52.008;4.752;2023-04-05T06:48:20;102498.06;;;4.49;63.06
46534;BME280;32260;52.008;4.752;2023-04-05T06:50:46;102498.25;;;4.55;63.22
46534;BME280;32260;52.008;4.752;2023-04-05T06:53:12;102497.63;;;4.62;63.25
46534;BME280;32260;52.008;4.752;2023-04-05T06:55:48;102497.94;;;4.73;62.84
46534;BME280;32260;52.008;4.752;2023-04-05T06:58:15;102496.31;;;4.78;62.25
46534;BME280;32260;52.008;4.752;2023-04-05T07:00:41;102491.25;;;4.84;61.94
46534;BME280;32260;52.008;4.752;2023-04-05T07:03:07;102493.22;;;4.92;61.86
46534;BME280;32260;52.008;4.752;2023-04-05T07:05:33;102497.00;;;5.00;61.48
46534;BME280;32260;52.008;4.752;2023-04-05T07:07:59;102498.97;;;5.07;61.46
46534;BME280;32260;52.008;4.752;2023-04-05T07:10:26;102490.34;;;5.13;61.46
46534;BME280;32260;52.008;4.752;2023-04-05T07:12:52;102489.69;;;5.20;61.46
46534;BME280;32260;52.008;4.752;2023-04-05T07:15:18;102485.56;;;5.28;61.24
46534;BME280;32260;52.008;4.752;2023-04-05T07:17:44;102485.75;;;5.36;61.16
46534;BME280;32260;52.008;4.752;2023-04-05T07:20:11;102484.19;;;5.43;60.95
46534;BME280;32260;52.008;4.752;2023-04-05T07:22:37;102479.13;;;5.50;60.70
46534;BME280;32260;52.008;4.752;2023-04-05T07:25:03;102481.94;;;5.57;60.74
46534;BME280;32260;52.008;4.752;2023-04-05T07:27:30;102479.56;;;5.66;60.55
46534;BME280;32260;52.008;4.752;2023-04-05T07:29:56;102476.25;;;5.73;60.54
46534;BME280;32260;52.008;4.752;2023-04-05T07:32:23;102469.44;;;5.81;60.42
46534;BME280;32260;52.008;4.752;2023-04-05T07:34:49;102474.84;;;5.88;60.29
46534;BME280;32260;52.008;4.752;2023-04-05T07:37:15;102468.91;;;5.95;59.68
46534;BME280;32260;52.008;4.752;2023-04-05T07:39:41;102469.94;;;6.00;59.52
46534;BME280;32260;52.008;4.752;2023-04-05T07:42:07;102474.47;;;6.06;59.13
46534;BME280;32260;52.008;4.752;2023-04-05T07:44:33;102472.09;;;6.17;59.23
46534;BME280;32260;52.008;4.752;2023-04-05T07:46:59;102472.38;;;6.29;59.06
46534;BME280;32260;52.008;4.752;2023-04-05T07:49:26;102470.88;;;6.39;58.75
46534;BME280;32260;52.008;4.752;2023-04-05T07:51:56;102465.88;;;6.50;58.27
46534;BME280;32260;52.008;4.752;2023-04-05T07:54:22;102468.69;;;6.59;58.75
46534;BME280;32260;52.008;4.752;2023-04-05T07:56:49;102463.66;;;6.68;58.53
46534;BME280;32260;52.008;4.752;2023-04-05T07:59:15;102463.84;;;6.77;58.40
46534;BME280;32260;52.008;4.752;2023-04-05T08:01:41;102464.00;;;6.85;57.51
46534;BME280;32260;52.008;4.752;2023-04-05T08:04:07;102473.91;;;6.97;57.61
46534;BME280;32260;52.008;4.752;2023-04-05T08:06:34;102465.34;;;7.07;58.02
46534;BME280;32260;52.008;4.752;2023-04-05T08:09:00;102456.75;;;7.18;57.87
46534;BME280;32260;52.008;4.752;2023-04-05T08:11:28;102462.28;;;7.30;57.51
46534;BME280;32260;52.008;4.752;2023-04-05T08:13:54;102462.47;;;7.39;56.51
46534;BME280;32260;52.008;4.752;2023-04-05T08:16:20;102465.34;;;7.52;56.88
46534;BME280;32260;52.008;4.752;2023-04-05T08:18:47;102458.50;;;7.63;56.46
46534;BME280;32260;52.008;4.752;2023-04-05T08:21:13;102450.75;;;7.72;55.55
46534;BME280;32260;52.008;4.752;2023-04-05T08:23:39;102450.09;;;7.84;55.46
46534;BME280;32260;52.008;4.752;2023-04-05T08:26:05;102452.03;;;7.96;55.15
46534;BME280;32260;52.008;4.752;2023-04-05T08:28:33;102451.28;;;8.03;53.67
46534;BME280;32260;52.008;4.752;2023-04-05T08:31:02;102450.69;;;8.21;56.39
46534;BME280;32260;52.008;4.752;2023-04-05T08:33:28;102444.78;;;8.39;56.41
46534;BME280;32260;52.008;4.752;2023-04-05T08:35:56;102441.69;;;8.67;52.40
46534;BME280;32260;52.008;4.752;2023-04-05T08:38:23;102447.22;;;8.84;53.15
46534;BME280;32260;52.008;4.752;2023-04-05T08:40:49;102444.66;;;8.93;51.26
46534;BME280;32260;52.008;4.752;2023-04-05T08:43:41;102440.47;;;9.11;51.44
46534;BME280;32260;52.008;4.752;2023-04-05T08:46:09;102436.06;;;9.10;50.27
46534;BME280;32260;52.008;4.752;2023-04-05T08:48:38;102438.84;;;9.22;50.80
46534;BME280;32260;52.008;4.752;2023-04-05T08:51:06;102433.69;;;9.34;51.65
46534;BME280;32260;52.008;4.752;2023-04-05T08:53:34;102427.66;;;9.49;50.89
46534;BME280;32260;52.008;4.752;2023-04-05T08:56:01;102430.44;;;9.60;50.70
46534;BME280;32260;52.008;4.752;2023-04-05T08:58:28;102432.31;;;9.74;48.74
46534;BME280;32260;52.008;4.752;2023-04-05T09:00:57;102426.22;;;9.84;49.66
46534;BME280;32260;52.008;4.752;2023-04-05T09:03:26;102430.75;;;9.97;49.26
46534;BME280;32260;52.008;4.752;2023-04-05T09:05:54;102428.22;;;10.13;47.80
46534;BME280;32260;52.008;4.752;2023-04-05T09:08:23;102433.63;;;10.28;48.56
46534;BME280;32260;52.008;4.752;2023-04-05T09:10:50;102425.81;;;10.41;44.82
46534;BME280;32260;52.008;4.752;2023-04-05T09:13:16;102425.84;;;10.50;45.64
46534;BME280;32260;52.008;4.752;2023-04-05T09:15:43;102425.03;;;10.62;45.05
46534;BME280;32260;52.008;4.752;2023-04-05T09:18:09;102428.63;;;10.76;47.55
46534;BME280;32260;52.008;4.752;2023-04-05T09:20:35;102427.78;;;10.85;43.56
46534;BME280;32260;52.008;4.752;2023-04-05T09:23:02;102425.16;;;10.93;42.21
46534;BME280;32260;52.008;4.752;2023-04-05T09:28:01;102425.25;;;11.16;41.49
46534;BME280;32260;52.008;4.752;2023-04-05T09:30:31;102420.84;;;11.21;38.23
46534;BME280;32260;52.008;4.752;2023-04-05T09:32:58;102413.78;;;11.32;42.23
46534;BME280;32260;52.008;4.752;2023-04-05T09:35:26;102422.66;;;11.47;40.72
46534;BME280;32260;52.008;4.752;2023-04-05T09:37:57;102420.03;;;11.61;39.86
46534;BME280;32260;52.008;4.752;2023-04-05T09:40:38;102414.75;;;11.70;39.34
46534;BME280;32260;52.008;4.752;2023-04-05T09:43:05;102409.41;;;11.79;38.92
46534;BME280;32260;52.008;4.752;2023-04-05T09:45:38;102403.22;;;11.91;39.45
46534;BME280;32260;52.008;4.752;2023-04-05T09:48:06;102412.97;;;11.98;38.45
46534;BME280;32260;52.008;4.752;2023-04-05T09:50:33;102410.31;;;12.11;38.14
46534;BME280;32260;52.008;4.752;2023-04-05T09:53:07;102412.94;;;12.31;40.10
46534;BME280;32260;52.008;4.752;2023-04-05T09:55:34;102403.16;;;12.44;37.64
46534;BME280;32260;52.008;4.752;2023-04-05T09:58:01;102403.13;;;12.53;36.98
46534;BME280;32260;52.008;4.752;2023-04-05T10:00:28;102403.97;;;12.65;37.52
46534;BME280;32260;52.008;4.752;2023-04-05T10:02:56;102404.88;;;12.67;37.57
46534;BME280;32260;52.008;4.752;2023-04-05T10:05:27;102398.66;;;12.69;37.20
46534;BME280;32260;52.008;4.752;2023-04-05T10:07:55;102393.31;;;12.69;36.24
46534;BME280;32260;52.008;4.752;2023-04-05T10:10:22;102388.84;;;12.76;37.12
46534;BME280;32260;52.008;4.752;2023-04-05T10:12:49;102388.81;;;12.82;37.68
46534;BME280;32260;52.008;4.752;2023-04-05T10:15:16;102379.94;;;12.89;35.60
46534;BME280;32260;52.008;4.752;2023-04-05T10:17:45;102379.91;;;12.99;37.17
46534;BME280;32260;52.008;4.752;2023-04-05T10:20:15;102375.38;;;13.13;37.59
46534;BME280;32260;52.008;4.752;2023-04-05T10:30:54;102368.91;;;13.53;33.91
46534;BME280;32260;52.008;4.752;2023-04-05T10:33:34;102374.16;;;13.64;34.25
46534;BME280;32260;52.008;4.752;2023-04-05T10:36:10;102383.91;;;13.66;33.77
46534;BME280;32260;52.008;4.752;2023-04-05T10:41:46;102370.53;;;13.72;33.77
46534;BME280;32260;52.008;4.752;2023-04-05T10:44:15;102374.06;;;13.73;34.99
46534;BME280;32260;52.008;4.752;2023-04-05T10:46:45;102365.91;;;13.91;35.41
46534;BME280;32260;52.008;4.752;2023-04-05T10:51:42;102366.56;;;14.15;34.82
46534;BME280;32260;52.008;4.752;2023-04-05T10:54:09;102370.13;;;14.14;32.53
46534;BME280;32260;52.008;4.752;2023-04-05T10:56:39;102364.78;;;14.17;30.95
46534;BME280;32260;52.008;4.752;2023-04-05T10:59:06;102362.13;;;14.16;34.47
46534;BME280;32260;52.008;4.752;2023-04-05T11:01:33;102355.91;;;14.15;32.83
46534;BME280;32260;52.008;4.752;2023-04-05T11:04:16;102349.50;;;14.33;33.66
46534;BME280;32260;52.008;4.752;2023-04-05T11:06:43;102344.16;;;14.33;33.41
46534;BME280;32260;52.008;4.752;2023-04-05T11:09:19;102344.13;;;14.36;34.08
46534;BME280;32260;52.008;4.752;2023-04-05T11:11:48;102349.34;;;14.46;33.94
46534;BME280;32260;52.008;4.752;2023-04-05T11:16:51;102344.69;;;14.68;34.06
46534;BME280;32260;52.008;4.752;2023-04-05T11:19:34;102336.59;;;14.72;31.09
46534;BME280;32260;52.008;4.752;2023-04-05T11:22:25;102333.72;;;14.86;32.58
46534;BME280;32260;52.008;4.752;2023-04-05T11:27:25;102340.16;;;14.73;29.96
46534;BME280;32260;52.008;4.752;2023-04-05T11:29:52;102329.53;;;14.68;32.01
46534;BME280;32260;52.008;4.752;2023-04-05T11:32:19;102323.22;;;14.74;33.44
46534;BME280;32260;52.008;4.752;2023-04-05T11:35:21;102327.25;;;15.04;32.36
46534;BME280;32260;52.008;4.752;2023-04-05T11:40:31;102319.78;;;15.27;30.95
46534;BME280;32260;52.008;4.752;2023-04-05T11:43:08;102312.53;;;15.35;31.24
46534;BME280;32260;52.008;4.752;2023-04-05T11:45:36;102310.78;;;15.34;31.01
46534;BME280;32260;52.008;4.752;2023-04-05T11:48:10;102313.28;;;15.43;32.28
46534;BME280;32260;52.008;4.752;2023-04-05T11:50:38;102306.16;;;15.44;30.07
46534;BME280;32260;52.008;4.752;2023-04-05T11:53:16;102306.75;;;15.60;30.97
46534;BME280;32260;52.008;4.752;2023-04-05T11:55:48;102305.94;;;15.58;30.59
46534;BME280;32260;52.008;4.752;2023-04-05T11:58:26;102307.66;;;15.59;30.28
46534;BME280;32260;52.008;4.752;2023-04-05T12:01:01;102294.25;;;15.63;28.88
46534;BME280;32260;52.008;4.752;2023-04-05T12:03:30;102298.84;;;15.53;29.71
46534;BME280;32260;52.008;4.752;2023-04-05T12:06:00;102290.16;;;15.42;30.34
46534;BME280;32260;52.008;4.752;2023-04-05T12:08:41;102293.75;;;15.40;30.37
46534;BME280;32260;52.008;4.752;2023-04-05T12:11:09;102291.22;;;15.32;30.97
46534;BME280;32260;52.008;4.752;2023-04-05T12:13:37;102292.88;;;15.37;31.75
46534;BME280;32260;52.008;4.752;2023-04-05T12:16:05;102293.63;;;15.47;30.16
46534;BME280;32260;52.008;4.752;2023-04-05T12:18:33;102287.22;;;15.56;29.69
46534;BME280;32260;52.008;4.752;2023-04-05T12:21:06;102280.69;;;15.74;30.21
46534;BME280;32260;52.008;4.752;2023-04-05T12:23:32;102285.88;;;15.85;29.29
46534;BME280;32260;52.008;4.752;2023-04-05T12:25:59;102287.34;;;16.01;28.29
46534;BME280;32260;52.008;4.752;2023-04-05T12:28:51;102274.38;;;16.25;29.66
46534;BME280;32260;52.008;4.752;2023-04-05T12:34:11;102269.97;;;16.23;30.04
46534;BME280;32260;52.008;4.752;2023-04-05T12:36:38;102272.56;;;16.26;29.90
46534;BME280;32260;52.008;4.752;2023-04-05T12:39:08;102277.22;;;16.16;29.22
46534;BME280;32260;52.008;4.752;2023-04-05T12:41:35;102271.56;;;16.31;28.84
46534;BME280;32260;52.008;4.752;2023-04-05T12:44:15;102261.56;;;16.41;29.42
46534;BME280;32260;52.008;4.752;2023-04-05T12:46:45;102261.34;;;16.50;29.95
46534;BME280;32260;52.008;4.752;2023-04-05T12:49:14;102251.47;;;16.54;28.08
46534;BME280;32260;52.008;4.752;2023-04-05T12:51:45;102254.94;;;16.58;30.12
46534;BME280;32260;52.008;4.752;2023-04-05T12:54:23;102251.19;;;16.66;28.89
46534;BME280;32260;52.008;4.752;2023-04-05T12:56:50;102253.94;;;16.62;29.50
46534;BME280;32260;52.008;4.752;2023-04-05T12:59:17;102244.19;;;16.59;30.52
46534;BME280;32260;52.008;4.752;2023-04-05T13:01:43;102238.66;;;16.67;28.90
46534;BME280;32260;52.008;4.752;2023-04-05T13:04:09;102240.31;;;16.73;29.04
46534;BME280;32260;52.008;4.752;2023-04-05T13:06:36;102234.69;;;16.85;28.87
46534;BME280;32260;52.008;4.752;2023-04-05T13:09:02;102234.06;;;16.74;28.40
46534;BME280;32260;52.008;4.752;2023-04-05T13:11:28;102229.81;;;16.63;27.54
46534;BME280;32260;52.008;4.752;2023-04-05T13:13:54;102230.53;;;16.72;28.48
46534;BME280;32260;52.008;4.752;2023-04-05T13:16:21;102233.16;;;16.75;27.79
46534;BME280;32260;52.008;4.752;2023-04-05T13:18:47;102222.50;;;16.72;28.40
46534;BME280;32260;52.008;4.752;2023-04-05T13:21:13;102219.38;;;16.90;28.28
46534;BME280;32260;52.008;4.752;2023-04-05T13:23:40;102220.03;;;17.02;28.24
46534;BME280;32260;52.008;4.752;2023-04-05T13:26:07;102211.03;;;17.04;28.54
46534;BME280;32260;52.008;4.752;2023-04-05T13:28:33;102214.63;;;17.03;28.35
46534;BME280;32260;52.008;4.752;2023-04-05T13:31:01;102211.25;;;16.96;28.13
46534;BME280;32260;52.008;4.752;2023-04-05T13:33:27;102203.09;;;17.01;28.23
46534;BME280;32260;52.008;4.752;2023-04-05T13:35:53;102201.25;;;17.03;27.98
46534;BME280;32260;52.008;4.752;2023-04-05T13:38:20;102193.97;;;17.08;27.34
46534;BME280;32260;52.008;4.752;2023-04-05T13:40:46;102192.72;;;17.22;27.76
46534;BME280;32260;52.008;4.752;2023-04-05T13:43:12;102197.28;;;17.20;28.40
46534;BME280;32260;52.008;4.752;2023-04-05T13:45:39;102190.91;;;17.24;27.92